createdAt,value
2022-12-03T00:01:24.088Z,12.29
2022-12-03T00:11:32.075Z,11.79
2022-12-03T00:21:40.037Z,11.63
2022-12-03T00:31:47.907Z,12.88
2022-12-03T00:41:55.707Z,12.35
2022-12-03T00:52:03.533Z,14.75
2022-12-03T01:02:11.807Z,13.83
2022-12-03T01:12:19.647Z,13.98
2022-12-03T01:22:27.449Z,11.84
2022-12-03T01:32:35.341Z,11.99
2022-12-03T01:42:43.107Z,12.94
2022-12-03T01:52:50.911Z,12.8
2022-12-03T02:02:58.702Z,14.93
2022-12-03T02:13:06.650Z,12.53
2022-12-03T02:23:14.586Z,12.01
2022-12-03T02:33:22.542Z,11.38
2022-12-03T02:43:32.335Z,10.92
2022-12-03T02:53:38.551Z,10.78
2022-12-03T03:03:46.431Z,11.38
2022-12-03T03:13:54.290Z,10.52
2022-12-03T03:24:02.463Z,9.1
2022-12-03T03:34:10.373Z,9.22
2022-12-03T03:44:18.134Z,9.65
2022-12-03T03:54:26.009Z,8.48
2022-12-03T04:04:33.860Z,8.62
2022-12-03T04:14:41.610Z,9.29
2022-12-03T04:24:49.479Z,8.74
2022-12-03T04:34:57.067Z,8.79
2022-12-03T04:45:04.715Z,8.54
2022-12-03T04:55:12.571Z,8.43
2022-12-03T05:05:20.399Z,8.29
2022-12-03T05:15:28.274Z,9.2
2022-12-03T05:25:36.303Z,8.11
2022-12-03T05:35:44.114Z,7.85
2022-12-03T05:45:52.020Z,8.67
2022-12-03T05:55:59.910Z,7.98
2022-12-03T06:06:07.820Z,7.39
2022-12-03T06:16:15.694Z,6.91
2022-12-03T06:26:23.552Z,7.44
2022-12-03T06:36:30.984Z,7.59
2022-12-03T06:46:39.851Z,7.42
2022-12-03T06:56:46.183Z,7.12
2022-12-03T07:06:54.275Z,7.05
2022-12-03T07:17:02.181Z,7.24
2022-12-03T07:27:10.016Z,8.17
2022-12-03T07:37:21.526Z,8.53
2022-12-03T07:47:24.923Z,7.36
2022-12-03T07:57:32.827Z,7.25
2022-12-03T08:07:40.650Z,8.69
2022-12-03T08:17:48.627Z,7.37
2022-12-03T08:27:56.536Z,7.72
2022-12-03T08:38:05.523Z,8.52
2022-12-03T08:48:13.434Z,7.5
2022-12-03T08:58:21.349Z,7.47
2022-12-03T09:08:29.178Z,6.71
2022-12-03T09:18:37.080Z,7.36
2022-12-03T09:28:44.922Z,6.65
2022-12-03T09:38:53.068Z,6.96
2022-12-03T09:49:59.064Z,8.42
2022-12-03T09:59:06.937Z,7.56
2022-12-03T10:09:14.838Z,7.21
2022-12-03T10:19:22.674Z,8.61
2022-12-03T10:29:33.846Z,8.12
2022-12-03T10:39:38.335Z,6.38
2022-12-03T10:49:46.328Z,6.7
2022-12-03T10:59:57.928Z,6.83
2022-12-03T11:09:59.401Z,6.28
2022-12-03T11:19:57.396Z,5.48
2022-12-03T11:30:06.047Z,5.45
2022-12-03T11:40:13.986Z,5.28
2022-12-03T11:50:23.404Z,4.55
2022-12-03T12:00:32.680Z,4.59
2022-12-03T12:10:40.706Z,12.2
2022-12-03T12:20:50.077Z,12.24
2022-12-03T12:30:58.060Z,7.93
2022-12-03T12:41:06.867Z,8.79
2022-12-03T12:51:14.854Z,9.19
2022-12-03T13:01:24.546Z,4.98
2022-12-03T13:11:34.436Z,5.14
2022-12-03T13:21:43.522Z,6.3
2022-12-03T13:31:51.807Z,4.6
2022-12-03T13:42:04.594Z,4.47
2022-12-03T13:52:04.641Z,4.05
2022-12-03T14:02:03.211Z,4.37
2022-12-03T14:12:11.021Z,4.24
2022-12-03T14:22:18.886Z,4
2022-12-03T14:32:31.475Z,3.25
2022-12-03T14:42:29.390Z,13.73
2022-12-03T14:52:41.730Z,4.88
2022-12-03T15:12:50.136Z,7.28
2022-12-03T15:33:04.426Z,5.05
2022-12-03T15:42:52.792Z,5.9
2022-12-03T15:53:02.144Z,5.25
2022-12-03T16:03:12.887Z,4.79
2022-12-03T16:13:12.001Z,5.2
2022-12-03T16:23:20.303Z,7.08
2022-12-03T16:33:28.287Z,6.3
2022-12-03T16:43:36.559Z,4.82
2022-12-03T16:53:44.963Z,6.73
2022-12-03T17:03:53.333Z,8.13
2022-12-03T17:14:01.696Z,7.29
2022-12-03T17:24:13.268Z,7.53
2022-12-03T17:34:17.267Z,9.32
2022-12-03T17:44:21.290Z,6.61
2022-12-03T17:54:21.571Z,6.82
2022-12-03T18:04:19.955Z,9.82
2022-12-03T18:14:31.776Z,7.27
2022-12-03T18:34:33.300Z,10.07
2022-12-03T18:44:46.413Z,8.68
2022-12-03T18:54:52.568Z,8.86
2022-12-03T19:04:51.317Z,8.83
2022-12-03T19:15:01.532Z,8.95
2022-12-03T19:25:07.495Z,8.7
2022-12-03T19:35:06.816Z,10.66
2022-12-03T19:45:15.060Z,11.81
2022-12-03T19:55:23.981Z,12.54
2022-12-03T20:05:33.232Z,13.2
2022-12-03T20:15:39.306Z,14.37
2022-12-03T20:25:48.520Z,10.28
2022-12-03T20:35:57.712Z,9.12
2022-12-03T20:46:04.601Z,10.71
2022-12-03T20:56:12.622Z,8.75
2022-12-03T21:06:20.803Z,11.4
2022-12-03T21:16:45.897Z,10.13
2022-12-03T21:26:35.946Z,11.05
2022-12-03T21:36:44.307Z,10.44
2022-12-03T21:47:09.005Z,12.83
2022-12-03T21:56:59.582Z,12.71
2022-12-03T22:07:09.372Z,11.49
2022-12-03T22:17:20.188Z,12.73
2022-12-03T22:27:18.606Z,12.86
2022-12-03T22:37:28.183Z,12.07
2022-12-03T22:47:36.898Z,13.02
2022-12-03T22:57:45.527Z,15.27
2022-12-03T23:07:53.932Z,15.69
2022-12-03T23:18:02.523Z,16.68
2022-12-03T23:28:10.723Z,14.38
2022-12-03T23:38:19.083Z,11.16
2022-12-03T23:48:27.432Z,12.3
2022-12-03T23:58:35.982Z,12.21
